sensor_id;sensor_type;location;lat;lon;timestamp;temperature;humidity
5009;DHT22;2523;51.058;6.922;2023-07-31T00:00:37;17.00;99.90
5009;DHT22;2523;51.058;6.922;2023-07-31T00:03:03;17.00;99.90
5009;DHT22;2523;51.058;6.922;2023-07-31T00:05:28;17.00;99.90
5009;DHT22;2523;51.058;6.922;2023-07-31T00:07:54;17.00;99.90
5009;DHT22;2523;51.058;6.922;2023-07-31T00:10:20;17.00;99.90
5009;DHT22;2523;51.058;6.922;2023-07-31T00:12:45;17.00;99.90
5009;DHT22;2523;51.058;6.922;2023-07-31T00:15:12;17.00;99.90
5009;DHT22;2523;51.058;6.922;2023-07-31T00:17:38;17.00;99.90
5009;DHT22;2523;51.058;6.922;2023-07-31T00:20:04;17.10;99.90
5009;DHT22;2523;51.058;6.922;2023-07-31T00:22:29;17.10;99.90
5009;DHT22;2523;51.058;6.922;2023-07-31T00:24:56;17.10;99.90
5009;DHT22;2523;51.058;6.922;2023-07-31T00:27:22;17.10;99.90
5009;DHT22;2523;51.058;6.922;2023-07-31T00:29:47;17.20;99.90
5009;DHT22;2523;51.058;6.922;2023-07-31T00:32:13;17.20;99.90
5009;DHT22;2523;51.058;6.922;2023-07-31T00:34:38;17.20;99.90
5009;DHT22;2523;51.058;6.922;2023-07-31T00:37:04;17.20;99.90
5009;DHT22;2523;51.058;6.922;2023-07-31T00:39:30;17.10;99.90
5009;DHT22;2523;51.058;6.922;2023-07-31T00:41:56;17.10;99.90
5009;DHT22;2523;51.058;6.922;2023-07-31T00:44:22;17.10;99.90
5009;DHT22;2523;51.058;6.922;2023-07-31T00:46:48;17.20;99.90
5009;DHT22;2523;51.058;6.922;2023-07-31T00:49:13;17.10;99.90
5009;DHT22;2523;51.058;6.922;2023-07-31T00:51:39;17.10;99.90
5009;DHT22;2523;51.058;6.922;2023-07-31T00:54:06;17.10;99.90
5009;DHT22;2523;51.058;6.922;2023-07-31T00:56:32;17.10;99.90
5009;DHT22;2523;51.058;6.922;2023-07-31T00:58:58;17.10;99.90
5009;DHT22;2523;51.058;6.922;2023-07-31T01:01:23;17.20;99.90
5009;DHT22;2523;51.058;6.922;2023-07-31T01:03:51;17.20;99.90
5009;DHT22;2523;51.058;6.922;2023-07-31T01:06:41;17.20;99.90
5009;DHT22;2523;51.058;6.922;2023-07-31T01:11:51;17.20;99.90
5009;DHT22;2523;51.058;6.922;2023-07-31T01:14:17;17.20;99.90
5009;DHT22;2523;51.058;6.922;2023-07-31T01:16:43;17.20;99.90
5009;DHT22;2523;51.058;6.922;2023-07-31T01:19:10;17.20;99.90
5009;DHT22;2523;51.058;6.922;2023-07-31T01:26:38;17.30;99.90
5009;DHT22;2523;51.058;6.922;2023-07-31T01:29:18;17.30;99.90
5009;DHT22;2523;51.058;6.922;2023-07-31T01:31:48;17.30;99.90
5009;DHT22;2523;51.058;6.922;2023-07-31T01:34:17;17.30;99.90
5009;DHT22;2523;51.058;6.922;2023-07-31T01:36:43;17.30;99.90
5009;DHT22;2523;51.058;6.922;2023-07-31T01:39:09;17.30;99.90
5009;DHT22;2523;51.058;6.922;2023-07-31T01:41:34;17.30;99.90
5009;DHT22;2523;51.058;6.922;2023-07-31T01:44:00;17.30;99.90
5009;DHT22;2523;51.058;6.922;2023-07-31T01:46:25;17.40;99.90
5009;DHT22;2523;51.058;6.922;2023-07-31T01:48:51;17.40;99.90
5009;DHT22;2523;51.058;6.922;2023-07-31T01:51:16;17.30;99.90
5009;DHT22;2523;51.058;6.922;2023-07-31T01:53:42;17.40;99.90
5009;DHT22;2523;51.058;6.922;2023-07-31T01:56:08;17.40;99.90
5009;DHT22;2523;51.058;6.922;2023-07-31T01:58:33;17.40;99.90
5009;DHT22;2523;51.058;6.922;2023-07-31T02:00:59;17.40;99.90
5009;DHT22;2523;51.058;6.922;2023-07-31T02:03:24;17.40;99.90
5009;DHT22;2523;51.058;6.922;2023-07-31T02:05:50;17.40;99.90
5009;DHT22;2523;51.058;6.922;2023-07-31T02:08:16;17.40;99.90
5009;DHT22;2523;51.058;6.922;2023-07-31T02:10:42;17.40;99.90
5009;DHT22;2523;51.058;6.922;2023-07-31T02:13:07;17.40;99.90
5009;DHT22;2523;51.058;6.922;2023-07-31T02:15:35;17.30;99.90
5009;DHT22;2523;51.058;6.922;2023-07-31T02:18:00;17.40;99.90
5009;DHT22;2523;51.058;6.922;2023-07-31T02:20:26;17.30;99.90
5009;DHT22;2523;51.058;6.922;2023-07-31T02:22:51;17.40;99.90
5009;DHT22;2523;51.058;6.922;2023-07-31T02:25:17;17.40;99.90
5009;DHT22;2523;51.058;6.922;2023-07-31T02:27:42;17.40;99.90
5009;DHT22;2523;51.058;6.922;2023-07-31T02:30:08;17.40;99.90
5009;DHT22;2523;51.058;6.922;2023-07-31T02:32:34;17.40;99.90
5009;DHT22;2523;51.058;6.922;2023-07-31T02:34:59;17.40;99.90
5009;DHT22;2523;51.058;6.922;2023-07-31T02:37:25;17.40;99.90
5009;DHT22;2523;51.058;6.922;2023-07-31T02:39:51;17.40;99.90
5009;DHT22;2523;51.058;6.922;2023-07-31T02:42:16;17.50;99.90
5009;DHT22;2523;51.058;6.922;2023-07-31T02:44:42;17.50;99.90
5009;DHT22;2523;51.058;6.922;2023-07-31T02:47:08;17.60;99.90
5009;DHT22;2523;51.058;6.922;2023-07-31T02:49:33;17.60;99.90
5009;DHT22;2523;51.058;6.922;2023-07-31T02:51:59;17.50;99.90
5009;DHT22;2523;51.058;6.922;2023-07-31T02:54:24;17.60;99.90
5009;DHT22;2523;51.058;6.922;2023-07-31T02:56:50;17.50;99.90
5009;DHT22;2523;51.058;6.922;2023-07-31T02:59:16;17.50;99.90
5009;DHT22;2523;51.058;6.922;2023-07-31T03:01:42;17.50;99.90
5009;DHT22;2523;51.058;6.922;2023-07-31T03:04:07;17.50;99.90
5009;DHT22;2523;51.058;6.922;2023-07-31T03:06:33;17.50;99.90
5009;DHT22;2523;51.058;6.922;2023-07-31T03:08:58;17.50;99.90
5009;DHT22;2523;51.058;6.922;2023-07-31T03:11:24;17.50;99.90
5009;DHT22;2523;51.058;6.922;2023-07-31T03:13:49;17.50;99.90
5009;DHT22;2523;51.058;6.922;2023-07-31T03:16:15;17.50;99.90
5009;DHT22;2523;51.058;6.922;2023-07-31T03:18:40;17.60;99.90
5009;DHT22;2523;51.058;6.922;2023-07-31T03:21:06;17.50;99.90
5009;DHT22;2523;51.058;6.922;2023-07-31T03:23:31;17.50;99.90
5009;DHT22;2523;51.058;6.922;2023-07-31T03:25:59;17.60;99.90
5009;DHT22;2523;51.058;6.922;2023-07-31T03:28:24;17.60;99.90
5009;DHT22;2523;51.058;6.922;2023-07-31T03:30:51;17.60;99.90
5009;DHT22;2523;51.058;6.922;2023-07-31T03:33:17;17.70;99.90
5009;DHT22;2523;51.058;6.922;2023-07-31T03:35:42;17.70;99.90
5009;DHT22;2523;51.058;6.922;2023-07-31T03:38:08;17.70;99.90
5009;DHT22;2523;51.058;6.922;2023-07-31T03:40:34;17.70;99.90
5009;DHT22;2523;51.058;6.922;2023-07-31T03:42:59;17.70;99.90
5009;DHT22;2523;51.058;6.922;2023-07-31T03:45:25;17.70;99.90
5009;DHT22;2523;51.058;6.922;2023-07-31T03:47:50;17.70;99.90
5009;DHT22;2523;51.058;6.922;2023-07-31T03:50:16;17.60;99.90
5009;DHT22;2523;51.058;6.922;2023-07-31T03:52:41;17.70;99.90
5009;DHT22;2523;51.058;6.922;2023-07-31T03:55:07;17.70;99.90
5009;DHT22;2523;51.058;6.922;2023-07-31T03:57:33;17.60;99.90
5009;DHT22;2523;51.058;6.922;2023-07-31T03:59:58;17.60;99.90
5009;DHT22;2523;51.058;6.922;2023-07-31T04:02:24;17.60;99.90
5009;DHT22;2523;51.058;6.922;2023-07-31T04:04:49;17.60;99.90
5009;DHT22;2523;51.058;6.922;2023-07-31T04:07:15;17.60;99.90
5009;DHT22;2523;51.058;6.922;2023-07-31T04:09:40;17.50;99.90
5009;DHT22;2523;51.058;6.922;2023-07-31T04:12:06;17.50;99.90
5009;DHT22;2523;51.058;6.922;2023-07-31T04:14:32;17.60;99.90
5009;DHT22;2523;51.058;6.922;2023-07-31T04:16:57;17.50;99.90
5009;DHT22;2523;51.058;6.922;2023-07-31T04:19:23;17.50;99.90
5009;DHT22;2523;51.058;6.922;2023-07-31T04:21:49;17.50;99.90
5009;DHT22;2523;51.058;6.922;2023-07-31T04:24:14;17.60;99.90
5009;DHT22;2523;51.058;6.922;2023-07-31T04:26:40;17.60;99.90
5009;DHT22;2523;51.058;6.922;2023-07-31T04:29:05;17.60;99.90
5009;DHT22;2523;51.058;6.922;2023-07-31T04:31:31;17.60;99.90
5009;DHT22;2523;51.058;6.922;2023-07-31T04:33:58;17.60;99.90
5009;DHT22;2523;51.058;6.922;2023-07-31T04:36:23;17.60;99.90
5009;DHT22;2523;51.058;6.922;2023-07-31T04:38:49;17.60;99.90
5009;DHT22;2523;51.058;6.922;2023-07-31T04:41:14;17.60;99.90
5009;DHT22;2523;51.058;6.922;2023-07-31T04:43:40;17.60;99.90
5009;DHT22;2523;51.058;6.922;2023-07-31T04:46:06;17.60;99.90
5009;DHT22;2523;51.058;6.922;2023-07-31T04:48:31;17.60;99.90
5009;DHT22;2523;51.058;6.922;2023-07-31T04:50:57;17.60;99.90
5009;DHT22;2523;51.058;6.922;2023-07-31T04:53:22;17.60;99.90
5009;DHT22;2523;51.058;6.922;2023-07-31T04:55:48;17.60;99.90
5009;DHT22;2523;51.058;6.922;2023-07-31T04:58:13;17.60;99.90
5009;DHT22;2523;51.058;6.922;2023-07-31T05:00:39;17.60;99.90
5009;DHT22;2523;51.058;6.922;2023-07-31T05:03:04;17.60;99.90
5009;DHT22;2523;51.058;6.922;2023-07-31T05:05:30;17.60;99.90
5009;DHT22;2523;51.058;6.922;2023-07-31T05:07:55;17.60;99.90
5009;DHT22;2523;51.058;6.922;2023-07-31T05:10:21;17.70;99.90
5009;DHT22;2523;51.058;6.922;2023-07-31T05:12:46;17.70;99.90
5009;DHT22;2523;51.058;6.922;2023-07-31T05:15:12;17.70;99.90
5009;DHT22;2523;51.058;6.922;2023-07-31T05:17:38;17.70;99.90
5009;DHT22;2523;51.058;6.922;2023-07-31T05:20:03;17.80;99.90
5009;DHT22;2523;51.058;6.922;2023-07-31T05:22:29;17.80;99.90
5009;DHT22;2523;51.058;6.922;2023-07-31T05:24:54;17.90;99.90
5009;DHT22;2523;51.058;6.922;2023-07-31T05:27:20;17.90;99.90
5009;DHT22;2523;51.058;6.922;2023-07-31T05:29:46;17.90;99.90
5009;DHT22;2523;51.058;6.922;2023-07-31T05:32:12;17.90;99.90
5009;DHT22;2523;51.058;6.922;2023-07-31T05:34:37;18.00;99.90
5009;DHT22;2523;51.058;6.922;2023-07-31T05:37:03;18.00;99.90
5009;DHT22;2523;51.058;6.922;2023-07-31T05:39:28;18.10;99.90
5009;DHT22;2523;51.058;6.922;2023-07-31T05:41:54;18.10;99.90
5009;DHT22;2523;51.058;6.922;2023-07-31T05:44:19;18.00;99.90
5009;DHT22;2523;51.058;6.922;2023-07-31T05:46:45;18.10;99.90
5009;DHT22;2523;51.058;6.922;2023-07-31T05:49:10;18.10;99.90
5009;DHT22;2523;51.058;6.922;2023-07-31T05:51:36;18.00;99.90
5009;DHT22;2523;51.058;6.922;2023-07-31T05:54:01;18.00;99.90
5009;DHT22;2523;51.058;6.922;2023-07-31T05:56:27;18.00;99.90
5009;DHT22;2523;51.058;6.922;2023-07-31T05:58:52;18.00;99.90
5009;DHT22;2523;51.058;6.922;2023-07-31T06:01:18;18.00;99.90
5009;DHT22;2523;51.058;6.922;2023-07-31T06:03:44;18.00;99.90
5009;DHT22;2523;51.058;6.922;2023-07-31T06:06:10;17.90;99.90
5009;DHT22;2523;51.058;6.922;2023-07-31T06:08:36;17.90;99.90
5009;DHT22;2523;51.058;6.922;2023-07-31T06:11:01;17.90;99.90
5009;DHT22;2523;51.058;6.922;2023-07-31T06:13:27;17.90;99.90
5009;DHT22;2523;51.058;6.922;2023-07-31T06:15:52;17.90;99.90
5009;DHT22;2523;51.058;6.922;2023-07-31T06:18:18;17.80;99.90
5009;DHT22;2523;51.058;6.922;2023-07-31T06:20:43;17.80;99.90
5009;DHT22;2523;51.058;6.922;2023-07-31T06:23:09;17.70;99.90
5009;DHT22;2523;51.058;6.922;2023-07-31T06:25:35;17.70;99.90
5009;DHT22;2523;51.058;6.922;2023-07-31T06:28:00;17.60;99.90
5009;DHT22;2523;51.058;6.922;2023-07-31T06:30:26;17.60;99.90
5009;DHT22;2523;51.058;6.922;2023-07-31T06:32:51;17.70;99.90
5009;DHT22;2523;51.058;6.922;2023-07-31T06:35:17;17.70;99.90
5009;DHT22;2523;51.058;6.922;2023-07-31T06:37:43;17.60;99.90
5009;DHT22;2523;51.058;6.922;2023-07-31T06:40:10;17.70;99.90
5009;DHT22;2523;51.058;6.922;2023-07-31T06:42:35;17.70;99.90
5009;DHT22;2523;51.058;6.922;2023-07-31T06:45:02;17.70;99.90
5009;DHT22;2523;51.058;6.922;2023-07-31T06:47:27;17.80;99.90
5009;DHT22;2523;51.058;6.922;2023-07-31T06:49:53;17.80;99.90
5009;DHT22;2523;51.058;6.922;2023-07-31T06:52:18;17.80;99.90
5009;DHT22;2523;51.058;6.922;2023-07-31T06:54:44;17.80;99.90
5009;DHT22;2523;51.058;6.922;2023-07-31T06:57:09;17.80;99.90
5009;DHT22;2523;51.058;6.922;2023-07-31T06:59:35;17.80;99.90
5009;DHT22;2523;51.058;6.922;2023-07-31T07:02:01;17.90;99.90
5009;DHT22;2523;51.058;6.922;2023-07-31T07:04:26;17.90;99.90
5009;DHT22;2523;51.058;6.922;2023-07-31T07:06:52;17.90;99.90
5009;DHT22;2523;51.058;6.922;2023-07-31T07:09:17;17.90;99.90
5009;DHT22;2523;51.058;6.922;2023-07-31T07:11:43;17.90;99.90
5009;DHT22;2523;51.058;6.922;2023-07-31T07:14:09;17.90;99.90
5009;DHT22;2523;51.058;6.922;2023-07-31T07:16:35;17.90;99.90
5009;DHT22;2523;51.058;6.922;2023-07-31T07:19:00;17.90;99.90
5009;DHT22;2523;51.058;6.922;2023-07-31T07:21:26;18.00;99.90
5009;DHT22;2523;51.058;6.922;2023-07-31T07:23:52;17.90;99.90
5009;DHT22;2523;51.058;6.922;2023-07-31T07:26:17;18.00;99.90
5009;DHT22;2523;51.058;6.922;2023-07-31T07:28:43;18.00;99.90
5009;DHT22;2523;51.058;6.922;2023-07-31T07:31:08;18.10;99.90
5009;DHT22;2523;51.058;6.922;2023-07-31T07:33:34;18.00;99.90
5009;DHT22;2523;51.058;6.922;2023-07-31T07:36:02;18.00;99.90
5009;DHT22;2523;51.058;6.922;2023-07-31T07:38:28;18.00;99.90
5009;DHT22;2523;51.058;6.922;2023-07-31T07:40:54;17.90;99.90
5009;DHT22;2523;51.058;6.922;2023-07-31T07:43:19;17.90;99.90
5009;DHT22;2523;51.058;6.922;2023-07-31T07:45:45;17.90;99.90
5009;DHT22;2523;51.058;6.922;2023-07-31T07:48:10;17.90;99.90
5009;DHT22;2523;51.058;6.922;2023-07-31T07:50:38;17.80;99.90
5009;DHT22;2523;51.058;6.922;2023-07-31T07:53:04;17.90;99.90
5009;DHT22;2523;51.058;6.922;2023-07-31T07:55:29;17.80;99.90
5009;DHT22;2523;51.058;6.922;2023-07-31T07:57:55;17.80;99.90
5009;DHT22;2523;51.058;6.922;2023-07-31T08:00:20;17.70;99.90
5009;DHT22;2523;51.058;6.922;2023-07-31T08:02:46;17.70;99.90
5009;DHT22;2523;51.058;6.922;2023-07-31T08:05:11;17.70;99.90
5009;DHT22;2523;51.058;6.922;2023-07-31T08:07:37;17.60;99.90
5009;DHT22;2523;51.058;6.922;2023-07-31T08:10:02;17.70;99.90
5009;DHT22;2523;51.058;6.922;2023-07-31T08:12:28;17.70;99.90
5009;DHT22;2523;51.058;6.922;2023-07-31T08:14:54;17.70;99.90
5009;DHT22;2523;51.058;6.922;2023-07-31T08:17:19;17.70;99.90
5009;DHT22;2523;51.058;6.922;2023-07-31T08:19:45;17.60;99.90
5009;DHT22;2523;51.058;6.922;2023-07-31T08:22:11;17.60;99.90
5009;DHT22;2523;51.058;6.922;2023-07-31T08:24:37;17.60;99.90
5009;DHT22;2523;51.058;6.922;2023-07-31T08:27:02;17.60;99.90
5009;DHT22;2523;51.058;6.922;2023-07-31T08:29:28;17.60;99.90
5009;DHT22;2523;51.058;6.922;2023-07-31T08:31:53;17.70;99.90
5009;DHT22;2523;51.058;6.922;2023-07-31T08:34:19;17.80;99.90
5009;DHT22;2523;51.058;6.922;2023-07-31T08:36:44;17.80;99.90
5009;DHT22;2523;51.058;6.922;2023-07-31T08:39:10;17.90;99.90
5009;DHT22;2523;51.058;6.922;2023-07-31T08:41:39;17.90;99.90
5009;DHT22;2523;51.058;6.922;2023-07-31T08:44:05;17.90;99.90
5009;DHT22;2523;51.058;6.922;2023-07-31T08:46:31;18.00;99.90
5009;DHT22;2523;51.058;6.922;2023-07-31T08:48:58;18.00;99.90
5009;DHT22;2523;51.058;6.922;2023-07-31T08:51:25;18.10;99.90
5009;DHT22;2523;51.058;6.922;2023-07-31T08:53:50;18.20;99.90
5009;DHT22;2523;51.058;6.922;2023-07-31T08:56:16;18.20;99.90
5009;DHT22;2523;51.058;6.922;2023-07-31T08:58:43;18.30;99.90
5009;DHT22;2523;51.058;6.922;2023-07-31T09:01:09;18.30;99.90
5009;DHT22;2523;51.058;6.922;2023-07-31T09:03:36;18.30;99.90
5009;DHT22;2523;51.058;6.922;2023-07-31T09:06:02;18.30;99.90
5009;DHT22;2523;51.058;6.922;2023-07-31T09:08:31;18.30;99.90
5009;DHT22;2523;51.058;6.922;2023-07-31T09:11:00;18.30;99.90
5009;DHT22;2523;51.058;6.922;2023-07-31T09:13:29;18.20;99.90
5009;DHT22;2523;51.058;6.922;2023-07-31T09:15:54;18.20;99.90
5009;DHT22;2523;51.058;6.922;2023-07-31T09:18:20;18.10;99.90
5009;DHT22;2523;51.058;6.922;2023-07-31T09:21:01;18.10;99.90
5009;DHT22;2523;51.058;6.922;2023-07-31T09:23:44;18.10;99.90
5009;DHT22;2523;51.058;6.922;2023-07-31T09:26:09;18.00;99.90
5009;DHT22;2523;51.058;6.922;2023-07-31T09:28:35;18.00;99.90
5009;DHT22;2523;51.058;6.922;2023-07-31T09:31:01;18.10;99.90
5009;DHT22;2523;51.058;6.922;2023-07-31T09:33:26;18.10;99.90
5009;DHT22;2523;51.058;6.922;2023-07-31T09:35:52;18.10;99.90
5009;DHT22;2523;51.058;6.922;2023-07-31T09:38:17;18.30;99.90
5009;DHT22;2523;51.058;6.922;2023-07-31T09:43:12;18.50;99.90
5009;DHT22;2523;51.058;6.922;2023-07-31T09:45:42;18.60;99.90
5009;DHT22;2523;51.058;6.922;2023-07-31T09:48:15;18.60;99.90
5009;DHT22;2523;51.058;6.922;2023-07-31T09:50:44;18.60;99.90
5009;DHT22;2523;51.058;6.922;2023-07-31T09:53:09;18.70;99.90
5009;DHT22;2523;51.058;6.922;2023-07-31T09:55:36;18.70;99.90
5009;DHT22;2523;51.058;6.922;2023-07-31T09:58:07;18.80;99.90
5009;DHT22;2523;51.058;6.922;2023-07-31T10:00:33;18.70;99.90
5009;DHT22;2523;51.058;6.922;2023-07-31T10:03:00;18.80;99.90
5009;DHT22;2523;51.058;6.922;2023-07-31T10:05:31;18.80;99.90
5009;DHT22;2523;51.058;6.922;2023-07-31T10:07:57;18.80;99.90
5009;DHT22;2523;51.058;6.922;2023-07-31T10:10:23;18.90;99.90
5009;DHT22;2523;51.058;6.922;2023-07-31T10:12:51;18.90;99.90
5009;DHT22;2523;51.058;6.922;2023-07-31T10:15:17;18.90;99.90
5009;DHT22;2523;51.058;6.922;2023-07-31T10:17:43;18.80;99.90
5009;DHT22;2523;51.058;6.922;2023-07-31T10:20:09;18.70;99.90
5009;DHT22;2523;51.058;6.922;2023-07-31T10:22:36;18.80;99.90
5009;DHT22;2523;51.058;6.922;2023-07-31T10:25:02;18.90;99.90
5009;DHT22;2523;51.058;6.922;2023-07-31T10:27:27;18.90;99.90
5009;DHT22;2523;51.058;6.922;2023-07-31T10:29:55;18.90;99.90
5009;DHT22;2523;51.058;6.922;2023-07-31T10:32:22;18.90;99.90
5009;DHT22;2523;51.058;6.922;2023-07-31T10:34:49;18.80;99.90
5009;DHT22;2523;51.058;6.922;2023-07-31T10:37:29;18.80;99.90
5009;DHT22;2523;51.058;6.922;2023-07-31T10:40:03;18.80;99.90
5009;DHT22;2523;51.058;6.922;2023-07-31T10:42:37;18.70;99.90
5009;DHT22;2523;51.058;6.922;2023-07-31T10:45:08;18.70;99.90
5009;DHT22;2523;51.058;6.922;2023-07-31T10:47:38;18.70;99.90
5009;DHT22;2523;51.058;6.922;2023-07-31T10:50:18;18.80;99.90
5009;DHT22;2523;51.058;6.922;2023-07-31T10:52:53;18.70;99.90
5009;DHT22;2523;51.058;6.922;2023-07-31T10:58:11;18.90;99.90
5009;DHT22;2523;51.058;6.922;2023-07-31T11:00:41;18.80;99.90
5009;DHT22;2523;51.058;6.922;2023-07-31T11:03:18;18.80;99.90
5009;DHT22;2523;51.058;6.922;2023-07-31T11:05:51;18.80;99.90
5009;DHT22;2523;51.058;6.922;2023-07-31T11:10:48;19.00;99.90
5009;DHT22;2523;51.058;6.922;2023-07-31T11:13:14;19.10;99.90
5009;DHT22;2523;51.058;6.922;2023-07-31T11:15:40;19.30;99.90
5009;DHT22;2523;51.058;6.922;2023-07-31T11:18:06;19.40;99.90
5009;DHT22;2523;51.058;6.922;2023-07-31T11:20:34;19.50;99.90
5009;DHT22;2523;51.058;6.922;2023-07-31T11:23:05;19.70;99.90
5009;DHT22;2523;51.058;6.922;2023-07-31T11:25:32;20.00;99.90
5009;DHT22;2523;51.058;6.922;2023-07-31T11:28:10;20.10;99.90
5009;DHT22;2523;51.058;6.922;2023-07-31T11:30:37;20.10;99.90
5009;DHT22;2523;51.058;6.922;2023-07-31T11:33:04;20.00;99.90
5009;DHT22;2523;51.058;6.922;2023-07-31T11:35:35;19.90;99.90
5009;DHT22;2523;51.058;6.922;2023-07-31T11:38:01;19.80;99.90
5009;DHT22;2523;51.058;6.922;2023-07-31T11:40:27;19.70;99.90
5009;DHT22;2523;51.058;6.922;2023-07-31T11:42:57;19.60;99.90
5009;DHT22;2523;51.058;6.922;2023-07-31T11:45:25;19.70;99.90
5009;DHT22;2523;51.058;6.922;2023-07-31T11:47:50;19.80;99.90
5009;DHT22;2523;51.058;6.922;2023-07-31T11:50:16;19.90;99.90
5009;DHT22;2523;51.058;6.922;2023-07-31T11:52:44;20.00;99.90
5009;DHT22;2523;51.058;6.922;2023-07-31T11:55:12;19.90;99.90
5009;DHT22;2523;51.058;6.922;2023-07-31T11:57:39;19.80;99.90
5009;DHT22;2523;51.058;6.922;2023-07-31T12:00:08;19.80;99.90
5009;DHT22;2523;51.058;6.922;2023-07-31T12:02:35;19.80;99.90
5009;DHT22;2523;51.058;6.922;2023-07-31T12:05:01;19.80;99.90
5009;DHT22;2523;51.058;6.922;2023-07-31T12:07:27;19.80;99.90
5009;DHT22;2523;51.058;6.922;2023-07-31T12:09:54;19.80;99.90
5009;DHT22;2523;51.058;6.922;2023-07-31T12:12:24;19.80;99.90
5009;DHT22;2523;51.058;6.922;2023-07-31T12:14:50;19.70;99.90
5009;DHT22;2523;51.058;6.922;2023-07-31T12:17:17;19.70;99.90
5009;DHT22;2523;51.058;6.922;2023-07-31T12:19:42;19.60;99.90
5009;DHT22;2523;51.058;6.922;2023-07-31T12:22:15;19.60;99.90
5009;DHT22;2523;51.058;6.922;2023-07-31T12:24:43;19.70;99.90
5009;DHT22;2523;51.058;6.922;2023-07-31T12:27:15;19.60;99.90
5009;DHT22;2523;51.058;6.922;2023-07-31T12:29:43;19.60;99.90
5009;DHT22;2523;51.058;6.922;2023-07-31T12:32:24;19.60;99.90
5009;DHT22;2523;51.058;6.922;2023-07-31T12:34:51;19.60;99.90
5009;DHT22;2523;51.058;6.922;2023-07-31T12:37:17;19.60;99.90
5009;DHT22;2523;51.058;6.922;2023-07-31T12:39:42;19.60;99.90
5009;DHT22;2523;51.058;6.922;2023-07-31T12:42:08;19.70;99.90
5009;DHT22;2523;51.058;6.922;2023-07-31T12:44:34;19.80;99.90
5009;DHT22;2523;51.058;6.922;2023-07-31T12:46:59;19.90;99.90
5009;DHT22;2523;51.058;6.922;2023-07-31T12:49:25;19.80;99.90
5009;DHT22;2523;51.058;6.922;2023-07-31T12:51:50;19.80;99.90
5009;DHT22;2523;51.058;6.922;2023-07-31T12:54:16;19.80;99.90
5009;DHT22;2523;51.058;6.922;2023-07-31T12:56:41;19.80;99.90
5009;DHT22;2523;51.058;6.922;2023-07-31T12:59:07;19.80;99.90
5009;DHT22;2523;51.058;6.922;2023-07-31T13:01:32;19.90;99.90
5009;DHT22;2523;51.058;6.922;2023-07-31T13:03:58;19.90;99.90
5009;DHT22;2523;51.058;6.922;2023-07-31T13:06:25;20.00;99.90
5009;DHT22;2523;51.058;6.922;2023-07-31T13:08:51;20.00;99.90
5009;DHT22;2523;51.058;6.922;2023-07-31T13:11:16;20.00;99.90
5009;DHT22;2523;51.058;6.922;2023-07-31T13:13:42;20.00;99.90
5009;DHT22;2523;51.058;6.922;2023-07-31T13:16:07;20.00;99.90
5009;DHT22;2523;51.058;6.922;2023-07-31T13:18:33;20.00;99.90
5009;DHT22;2523;51.058;6.922;2023-07-31T13:20:58;20.10;99.90
5009;DHT22;2523;51.058;6.922;2023-07-31T13:23:24;20.00;99.90
5009;DHT22;2523;51.058;6.922;2023-07-31T13:25:49;19.90;99.90
5009;DHT22;2523;51.058;6.922;2023-07-31T13:28:15;19.90;99.90
5009;DHT22;2523;51.058;6.922;2023-07-31T13:30:40;19.90;99.90
5009;DHT22;2523;51.058;6.922;2023-07-31T13:33:06;20.10;99.90
5009;DHT22;2523;51.058;6.922;2023-07-31T13:35:31;20.20;99.90
5009;DHT22;2523;51.058;6.922;2023-07-31T13:37:57;20.30;99.90
5009;DHT22;2523;51.058;6.922;2023-07-31T13:40:23;20.50;99.90
5009;DHT22;2523;51.058;6.922;2023-07-31T13:42:48;20.70;99.90
5009;DHT22;2523;51.058;6.922;2023-07-31T13:45:14;20.80;99.90
5009;DHT22;2523;51.058;6.922;2023-07-31T13:47:40;20.70;99.90
5009;DHT22;2523;51.058;6.922;2023-07-31T13:50:06;20.80;99.90
5009;DHT22;2523;51.058;6.922;2023-07-31T13:52:31;20.80;99.90
5009;DHT22;2523;51.058;6.922;2023-07-31T13:54:57;20.80;99.90
5009;DHT22;2523;51.058;6.922;2023-07-31T13:57:22;20.90;99.90
5009;DHT22;2523;51.058;6.922;2023-07-31T13:59:48;21.10;99.90
5009;DHT22;2523;51.058;6.922;2023-07-31T14:02:14;21.30;99.90
5009;DHT22;2523;51.058;6.922;2023-07-31T14:04:40;21.50;99.90
5009;DHT22;2523;51.058;6.922;2023-07-31T14:07:06;21.70;99.90
5009;DHT22;2523;51.058;6.922;2023-07-31T14:09:31;21.70;99.90
5009;DHT22;2523;51.058;6.922;2023-07-31T14:11:57;21.60;99.90
5009;DHT22;2523;51.058;6.922;2023-07-31T14:14:22;21.50;99.90
5009;DHT22;2523;51.058;6.922;2023-07-31T14:16:48;21.30;99.90
5009;DHT22;2523;51.058;6.922;2023-07-31T14:19:13;21.10;99.90
5009;DHT22;2523;51.058;6.922;2023-07-31T14:21:39;21.00;99.90
5009;DHT22;2523;51.058;6.922;2023-07-31T14:24:04;20.90;99.90
5009;DHT22;2523;51.058;6.922;2023-07-31T14:26:30;20.80;99.90
5009;DHT22;2523;51.058;6.922;2023-07-31T14:28:55;20.70;99.90
5009;DHT22;2523;51.058;6.922;2023-07-31T14:31:21;20.70;99.90
5009;DHT22;2523;51.058;6.922;2023-07-31T14:33:47;20.60;99.90
5009;DHT22;2523;51.058;6.922;2023-07-31T14:36:12;20.50;99.90
5009;DHT22;2523;51.058;6.922;2023-07-31T14:38:38;20.40;99.90
5009;DHT22;2523;51.058;6.922;2023-07-31T14:41:03;20.40;99.90
5009;DHT22;2523;51.058;6.922;2023-07-31T14:43:29;20.40;99.90
5009;DHT22;2523;51.058;6.922;2023-07-31T14:45:54;20.40;99.90
5009;DHT22;2523;51.058;6.922;2023-07-31T14:48:23;20.30;99.90
5009;DHT22;2523;51.058;6.922;2023-07-31T14:50:49;20.30;99.90
5009;DHT22;2523;51.058;6.922;2023-07-31T14:53:14;20.30;99.90
5009;DHT22;2523;51.058;6.922;2023-07-31T14:55:39;20.30;99.90
5009;DHT22;2523;51.058;6.922;2023-07-31T14:58:05;20.40;99.90
5009;DHT22;2523;51.058;6.922;2023-07-31T15:00:31;20.50;99.90
5009;DHT22;2523;51.058;6.922;2023-07-31T15:02:56;20.60;99.90
5009;DHT22;2523;51.058;6.922;2023-07-31T15:05:22;20.60;99.90
5009;DHT22;2523;51.058;6.922;2023-07-31T15:07:48;20.60;99.90
5009;DHT22;2523;51.058;6.922;2023-07-31T15:10:14;20.70;99.90
5009;DHT22;2523;51.058;6.922;2023-07-31T15:12:41;20.60;99.90
5009;DHT22;2523;51.058;6.922;2023-07-31T15:15:07;20.60;99.90
5009;DHT22;2523;51.058;6.922;2023-07-31T15:17:33;20.60;99.90
5009;DHT22;2523;51.058;6.922;2023-07-31T15:19:59;20.50;99.90
5009;DHT22;2523;51.058;6.922;2023-07-31T15:22:25;20.40;99.90
5009;DHT22;2523;51.058;6.922;2023-07-31T15:24:51;20.40;99.90
5009;DHT22;2523;51.058;6.922;2023-07-31T15:27:17;20.40;99.90
5009;DHT22;2523;51.058;6.922;2023-07-31T15:29:42;20.40;99.90
5009;DHT22;2523;51.058;6.922;2023-07-31T15:32:08;20.40;99.90
5009;DHT22;2523;51.058;6.922;2023-07-31T15:34:34;20.30;99.90
5009;DHT22;2523;51.058;6.922;2023-07-31T15:36:59;20.30;99.90
5009;DHT22;2523;51.058;6.922;2023-07-31T15:39:25;20.30;99.90
5009;DHT22;2523;51.058;6.922;2023-07-31T15:41:51;20.20;99.90
5009;DHT22;2523;51.058;6.922;2023-07-31T15:44:16;20.20;99.90
5009;DHT22;2523;51.058;6.922;2023-07-31T15:46:42;20.20;99.90
5009;DHT22;2523;51.058;6.922;2023-07-31T15:49:07;20.20;99.90
5009;DHT22;2523;51.058;6.922;2023-07-31T15:51:33;20.20;99.90
5009;DHT22;2523;51.058;6.922;2023-07-31T15:53:59;20.20;99.90
5009;DHT22;2523;51.058;6.922;2023-07-31T15:56:24;20.20;99.90
5009;DHT22;2523;51.058;6.922;2023-07-31T15:58:50;20.20;99.90
5009;DHT22;2523;51.058;6.922;2023-07-31T16:01:16;20.10;99.90
5009;DHT22;2523;51.058;6.922;2023-07-31T16:03:41;20.10;99.90
5009;DHT22;2523;51.058;6.922;2023-07-31T16:06:07;20.00;99.90
5009;DHT22;2523;51.058;6.922;2023-07-31T16:08:32;19.90;99.90
5009;DHT22;2523;51.058;6.922;2023-07-31T16:10:58;19.80;99.90